AUA725 LOWW-LYBE
Flight info
| Callsign | AUA725 |
|---|---|
| Flight time | 0h 51m |
| Altitude | 33000 |
| Route | ARSIN DCT NALOX DCT BABIT DCT RIGMU |
| Aircraft | A320/M-SDE3FGHIRWY/LB1 |
Departure
| Time | 2026-04-23 23:57 |
|---|---|
| Airport | Vienna International Airport (LOWW) |
Arrival
| Time | 2026-04-24 00:49 |
|---|---|
| Airport | Belgrade Nikola Tesla Airport (LYBE) |
| Time | Latitude | Longitude | Altitude | Speed | Heading |
|---|---|---|---|---|---|
| 2026-04-23 23:37 | 48.11681 | 16.56930 | 625 ft | 0 kts | 26° |
| 2026-04-23 23:48 | 48.11663 | 16.56917 | 627 ft | 4 kts | 28° |
| 2026-04-23 23:48 | 48.11639 | 16.56897 | 622 ft | 4 kts | 33° |
| 2026-04-23 23:48 | 48.11618 | 16.56873 | 625 ft | 4 kts | 47° |
| 2026-04-23 23:48 | 48.11606 | 16.56842 | 621 ft | 4 kts | 98° |
| 2026-04-23 23:49 | 48.11607 | 16.56833 | 619 ft | 0 kts | 116° |
| 2026-04-23 23:50 | 48.11583 | 16.56889 | 618 ft | 15 kts | 133° |
| 2026-04-23 23:51 | 48.11487 | 16.56884 | 609 ft | 14 kts | 207° |
| 2026-04-23 23:51 | 48.11404 | 16.56823 | 609 ft | 12 kts | 193° |
| 2026-04-23 23:51 | 48.11336 | 16.56883 | 622 ft | 16 kts | 123° |
| 2026-04-23 23:51 | 48.11269 | 16.57088 | 622 ft | 25 kts | 115° |
| 2026-04-23 23:52 | 48.11208 | 16.57276 | 614 ft | 19 kts | 116° |
| 2026-04-23 23:52 | 48.11149 | 16.57454 | 616 ft | 21 kts | 115° |
| 2026-04-23 23:52 | 48.11074 | 16.57686 | 617 ft | 24 kts | 116° |
| 2026-04-23 23:52 | 48.10979 | 16.57820 | 609 ft | 18 kts | 159° |
| 2026-04-23 23:53 | 48.10837 | 16.57894 | 611 ft | 28 kts | 165° |
| 2026-04-23 23:53 | 48.10649 | 16.57963 | 613 ft | 27 kts | 165° |
| 2026-04-23 23:53 | 48.10466 | 16.58038 | 613 ft | 28 kts | 164° |
| 2026-04-23 23:53 | 48.10278 | 16.58118 | 615 ft | 28 kts | 164° |
| 2026-04-23 23:54 | 48.10088 | 16.58197 | 624 ft | 29 kts | 164° |
| 2026-04-23 23:54 | 48.09899 | 16.58278 | 619 ft | 27 kts | 163° |
| 2026-04-23 23:54 | 48.09713 | 16.58358 | 609 ft | 29 kts | 163° |
| 2026-04-23 23:54 | 48.09520 | 16.58438 | 617 ft | 28 kts | 164° |
| 2026-04-23 23:55 | 48.09339 | 16.58518 | 620 ft | 26 kts | 161° |
| 2026-04-23 23:55 | 48.09171 | 16.58589 | 611 ft | 24 kts | 165° |
| 2026-04-23 23:55 | 48.09035 | 16.58641 | 622 ft | 19 kts | 163° |
| 2026-04-23 23:55 | 48.08935 | 16.58745 | 621 ft | 17 kts | 123° |
| 2026-04-23 23:56 | 48.08928 | 16.58911 | 619 ft | 18 kts | 72° |
| 2026-04-23 23:56 | 48.09028 | 16.59041 | 609 ft | 19 kts | 9° |
| 2026-04-23 23:56 | 48.09255 | 16.58972 | 609 ft | 63 kts | 343° |
| 2026-04-23 23:56 | 48.09889 | 16.58700 | 614 ft | 124 kts | 344° |
| 2026-04-23 23:57 | 48.10871 | 16.58291 | 718 ft | 160 kts | 345° |
| 2026-04-23 23:57 | 48.11927 | 16.57850 | 1440 ft | 159 kts | 343° |
| 2026-04-23 23:57 | 48.12968 | 16.57374 | 2240 ft | 160 kts | 345° |
| 2026-04-23 23:57 | 48.14091 | 16.56874 | 2650 ft | 179 kts | 340° |
| 2026-04-23 23:58 | 48.15053 | 16.55507 | 3007 ft | 215 kts | 299° |
| 2026-04-23 23:58 | 48.15164 | 16.53108 | 3468 ft | 254 kts | 259° |
| 2026-04-23 23:58 | 48.14140 | 16.50870 | 4398 ft | 272 kts | 223° |
| 2026-04-23 23:58 | 48.12486 | 16.49449 | 5411 ft | 278 kts | 208° |
| 2026-04-23 23:59 | 48.10677 | 16.48397 | 6371 ft | 280 kts | 206° |
| 2026-04-23 23:59 | 48.08812 | 16.47443 | 7191 ft | 288 kts | 197° |
| 2026-04-23 23:59 | 48.06779 | 16.47282 | 7992 ft | 298 kts | 175° |
| 2026-04-23 23:59 | 48.04723 | 16.47825 | 8838 ft | 302 kts | 171° |
| 2026-04-24 00:00 | 48.02638 | 16.48294 | 9694 ft | 305 kts | 173° |
| 2026-04-24 00:00 | 48.00499 | 16.48657 | 10269 ft | 319 kts | 177° |
| 2026-04-24 00:00 | 47.98206 | 16.48558 | 10541 ft | 341 kts | 188° |
| 2026-04-24 00:00 | 47.95812 | 16.47814 | 10787 ft | 362 kts | 199° |
| 2026-04-24 00:01 | 47.93452 | 16.46394 | 11334 ft | 369 kts | 210° |
| 2026-04-24 00:01 | 47.91124 | 16.44714 | 12024 ft | 376 kts | 203° |
| 2026-04-24 00:01 | 47.88583 | 16.43691 | 12748 ft | 382 kts | 189° |
| 2026-04-24 00:01 | 47.85920 | 16.43468 | 13490 ft | 386 kts | 177° |
| 2026-04-24 00:02 | 47.83291 | 16.44046 | 14170 ft | 389 kts | 165° |
| 2026-04-24 00:02 | 47.80668 | 16.45093 | 14798 ft | 392 kts | 163° |
| 2026-04-24 00:02 | 47.78019 | 16.46152 | 15410 ft | 396 kts | 163° |
| 2026-04-24 00:02 | 47.75338 | 16.47217 | 16019 ft | 400 kts | 163° |
| 2026-04-24 00:03 | 47.72635 | 16.48287 | 16632 ft | 404 kts | 163° |
| 2026-04-24 00:03 | 47.69908 | 16.49384 | 17226 ft | 408 kts | 161° |
| 2026-04-24 00:03 | 47.67292 | 16.50997 | 17805 ft | 409 kts | 149° |
| 2026-04-24 00:03 | 47.64922 | 16.53334 | 18404 ft | 409 kts | 136° |
| 2026-04-24 00:04 | 47.62923 | 16.56306 | 18922 ft | 407 kts | 124° |
| 2026-04-24 00:04 | 47.61365 | 16.59779 | 19450 ft | 404 kts | 113° |
| 2026-04-24 00:04 | 47.60212 | 16.63564 | 19988 ft | 404 kts | 108° |
| 2026-04-24 00:04 | 47.58943 | 16.67318 | 20533 ft | 412 kts | 118° |
| 2026-04-24 00:05 | 47.57129 | 16.70647 | 21075 ft | 422 kts | 132° |
| 2026-04-24 00:05 | 47.54790 | 16.73347 | 21599 ft | 431 kts | 146° |
| 2026-04-24 00:05 | 47.52045 | 16.75210 | 22105 ft | 439 kts | 160° |
| 2026-04-24 00:05 | 47.49034 | 16.76097 | 22597 ft | 445 kts | 174° |
| 2026-04-24 00:06 | 47.45963 | 16.76395 | 23068 ft | 448 kts | 175° |
| 2026-04-24 00:06 | 47.42846 | 16.76693 | 23546 ft | 451 kts | 175° |
| 2026-04-24 00:06 | 47.39703 | 16.77001 | 23959 ft | 454 kts | 174° |
| 2026-04-24 00:06 | 47.36530 | 16.77310 | 24354 ft | 456 kts | 174° |
| 2026-04-24 00:07 | 47.33351 | 16.77612 | 24727 ft | 459 kts | 174° |
| 2026-04-24 00:07 | 47.30155 | 16.77914 | 25087 ft | 462 kts | 174° |
| 2026-04-24 00:07 | 47.26940 | 16.78225 | 25458 ft | 464 kts | 174° |
| 2026-04-24 00:07 | 47.23707 | 16.78541 | 25798 ft | 467 kts | 174° |
| 2026-04-24 00:08 | 47.20440 | 16.78858 | 26140 ft | 470 kts | 174° |
| 2026-04-24 00:08 | 47.17217 | 16.79165 | 26486 ft | 472 kts | 174° |
| 2026-04-24 00:08 | 47.13927 | 16.79469 | 26832 ft | 474 kts | 174° |
| 2026-04-24 00:08 | 47.10628 | 16.79769 | 27170 ft | 476 kts | 174° |
| 2026-04-24 00:09 | 47.07313 | 16.80075 | 27496 ft | 479 kts | 174° |
| 2026-04-24 00:09 | 47.03981 | 16.80386 | 27812 ft | 481 kts | 174° |
| 2026-04-24 00:09 | 47.00627 | 16.80702 | 28128 ft | 483 kts | 174° |
| 2026-04-24 00:09 | 46.97263 | 16.81027 | 28417 ft | 485 kts | 173° |
| 2026-04-24 00:10 | 46.93936 | 16.81775 | 28722 ft | 483 kts | 163° |
| 2026-04-24 00:10 | 46.90751 | 16.83297 | 29016 ft | 479 kts | 152° |
| 2026-04-24 00:10 | 46.87811 | 16.85544 | 29296 ft | 475 kts | 142° |
| 2026-04-24 00:10 | 46.85188 | 16.88434 | 29548 ft | 470 kts | 133° |
| 2026-04-24 00:11 | 46.82939 | 16.91864 | 29800 ft | 465 kts | 123° |
| 2026-04-24 00:11 | 46.81088 | 16.95707 | 30073 ft | 462 kts | 116° |
| 2026-04-24 00:11 | 46.79406 | 16.99632 | 30270 ft | 464 kts | 116° |
| 2026-04-24 00:11 | 46.77689 | 17.03627 | 30542 ft | 463 kts | 116° |
| 2026-04-24 00:12 | 46.75970 | 17.07609 | 30838 ft | 463 kts | 116° |
| 2026-04-24 00:12 | 46.74809 | 17.10286 | 31037 ft | 462 kts | 116° |
| 2026-04-24 00:12 | 46.73112 | 17.14199 | 31332 ft | 461 kts | 116° |
| 2026-04-24 00:12 | 46.71399 | 17.18144 | 31627 ft | 460 kts | 116° |
| 2026-04-24 00:13 | 46.69691 | 17.22078 | 31931 ft | 459 kts | 116° |
| 2026-04-24 00:13 | 46.67990 | 17.25995 | 32273 ft | 457 kts | 116° |
| 2026-04-24 00:13 | 46.66292 | 17.29895 | 32613 ft | 456 kts | 116° |
| 2026-04-24 00:13 | 46.64593 | 17.33786 | 32898 ft | 455 kts | 116° |
| 2026-04-24 00:14 | 46.62893 | 17.37674 | 33086 ft | 455 kts | 116° |
| 2026-04-24 00:14 | 46.61198 | 17.41549 | 33113 ft | 453 kts | 116° |
| 2026-04-24 00:14 | 46.57812 | 17.49276 | 33113 ft | 452 kts | 116° |
| 2026-04-24 00:15 | 46.54450 | 17.56931 | 33107 ft | 452 kts | 116° |
| 2026-04-24 00:15 | 46.51056 | 17.64638 | 33099 ft | 453 kts | 116° |
| 2026-04-24 00:16 | 46.47655 | 17.72346 | 33094 ft | 454 kts | 116° |
| 2026-04-24 00:16 | 46.44242 | 17.80051 | 33085 ft | 453 kts | 116° |
| 2026-04-24 00:17 | 46.40822 | 17.87746 | 33083 ft | 454 kts | 116° |
| 2026-04-24 00:17 | 46.37401 | 17.95428 | 33101 ft | 454 kts | 116° |
| 2026-04-24 00:18 | 46.33973 | 18.03106 | 33099 ft | 454 kts | 116° |
| 2026-04-24 00:18 | 46.30565 | 18.10715 | 33093 ft | 453 kts | 116° |
| 2026-04-24 00:19 | 46.27126 | 18.18358 | 33090 ft | 453 kts | 116° |
| 2026-04-24 00:19 | 46.23692 | 18.26001 | 33108 ft | 453 kts | 116° |
| 2026-04-24 00:20 | 46.20238 | 18.33656 | 33088 ft | 454 kts | 116° |
| 2026-04-24 00:20 | 46.16774 | 18.41296 | 33083 ft | 455 kts | 116° |
| 2026-04-24 00:21 | 46.13331 | 18.48884 | 33077 ft | 456 kts | 116° |
| 2026-04-24 00:21 | 46.09852 | 18.56532 | 33080 ft | 456 kts | 116° |
| 2026-04-24 00:22 | 46.06364 | 18.64162 | 33094 ft | 456 kts | 116° |
| 2026-04-24 00:22 | 46.02867 | 18.71792 | 33073 ft | 456 kts | 116° |
| 2026-04-24 00:23 | 45.99379 | 18.79401 | 33071 ft | 455 kts | 116° |
| 2026-04-24 00:23 | 45.95892 | 18.86991 | 33062 ft | 455 kts | 116° |
| 2026-04-24 00:24 | 45.91692 | 18.93920 | 33074 ft | 469 kts | 134° |
| 2026-04-24 00:24 | 45.86231 | 18.99227 | 33051 ft | 476 kts | 142° |
| 2026-04-24 00:25 | 45.80638 | 19.04306 | 33047 ft | 476 kts | 142° |
| 2026-04-24 00:25 | 45.75034 | 19.09409 | 32817 ft | 477 kts | 142° |
| 2026-04-24 00:26 | 45.72270 | 19.11920 | 32558 ft | 476 kts | 142° |
| 2026-04-24 00:26 | 45.69463 | 19.14459 | 32314 ft | 476 kts | 142° |
| 2026-04-24 00:26 | 45.66664 | 19.16986 | 32060 ft | 477 kts | 142° |
| 2026-04-24 00:26 | 45.63849 | 19.19525 | 31803 ft | 478 kts | 142° |
| 2026-04-24 00:27 | 45.61031 | 19.22066 | 31551 ft | 478 kts | 142° |
| 2026-04-24 00:27 | 45.58224 | 19.24599 | 31248 ft | 478 kts | 143° |
| 2026-04-24 00:27 | 45.55403 | 19.27146 | 30155 ft | 484 kts | 143° |
| 2026-04-24 00:27 | 45.52551 | 19.29723 | 29359 ft | 481 kts | 143° |
| 2026-04-24 00:28 | 45.49744 | 19.32249 | 28687 ft | 473 kts | 143° |
| 2026-04-24 00:28 | 45.47003 | 19.34709 | 27987 ft | 468 kts | 143° |
| 2026-04-24 00:28 | 45.44287 | 19.37212 | 27312 ft | 461 kts | 140° |
| 2026-04-24 00:28 | 45.41856 | 19.40111 | 26654 ft | 452 kts | 131° |
| 2026-04-24 00:29 | 45.39800 | 19.43416 | 26066 ft | 441 kts | 122° |
| 2026-04-24 00:29 | 45.38142 | 19.47025 | 25474 ft | 432 kts | 115° |
| 2026-04-24 00:29 | 45.36653 | 19.50708 | 24904 ft | 428 kts | 115° |
| 2026-04-24 00:29 | 45.35164 | 19.54348 | 24339 ft | 424 kts | 116° |
| 2026-04-24 00:30 | 45.33678 | 19.57946 | 23786 ft | 420 kts | 116° |
| 2026-04-24 00:30 | 45.32201 | 19.61513 | 23189 ft | 417 kts | 116° |
| 2026-04-24 00:30 | 45.30741 | 19.65040 | 22674 ft | 412 kts | 116° |
| 2026-04-24 00:30 | 45.29300 | 19.68526 | 22207 ft | 407 kts | 116° |
| 2026-04-24 00:31 | 45.27875 | 19.71979 | 21704 ft | 404 kts | 116° |
| 2026-04-24 00:31 | 45.26463 | 19.75399 | 21253 ft | 400 kts | 116° |
| 2026-04-24 00:31 | 45.25064 | 19.78785 | 20804 ft | 396 kts | 117° |
| 2026-04-24 00:31 | 45.23677 | 19.82139 | 20346 ft | 392 kts | 117° |
| 2026-04-24 00:32 | 45.22297 | 19.85462 | 19903 ft | 389 kts | 117° |
| 2026-04-24 00:32 | 45.20924 | 19.88759 | 19449 ft | 387 kts | 117° |
| 2026-04-24 00:32 | 45.19559 | 19.92035 | 19005 ft | 385 kts | 117° |
| 2026-04-24 00:32 | 45.18202 | 19.95295 | 18530 ft | 383 kts | 117° |
| 2026-04-24 00:33 | 45.16850 | 19.98546 | 18035 ft | 382 kts | 117° |
| 2026-04-24 00:33 | 45.15502 | 20.01782 | 17565 ft | 380 kts | 117° |
| 2026-04-24 00:33 | 45.14158 | 20.04999 | 17076 ft | 378 kts | 117° |
| 2026-04-24 00:33 | 45.12819 | 20.08197 | 16596 ft | 376 kts | 117° |
| 2026-04-24 00:34 | 45.11485 | 20.11378 | 16117 ft | 375 kts | 117° |
| 2026-04-24 00:34 | 45.10155 | 20.14544 | 15641 ft | 373 kts | 117° |
| 2026-04-24 00:34 | 45.08829 | 20.17697 | 15161 ft | 372 kts | 117° |
| 2026-04-24 00:34 | 45.07506 | 20.20847 | 14669 ft | 371 kts | 117° |
| 2026-04-24 00:35 | 45.06204 | 20.23948 | 14191 ft | 370 kts | 117° |
| 2026-04-24 00:35 | 45.04890 | 20.27071 | 13695 ft | 369 kts | 117° |
| 2026-04-24 00:35 | 45.03579 | 20.30178 | 13178 ft | 367 kts | 118° |
| 2026-04-24 00:35 | 45.02274 | 20.33259 | 12691 ft | 364 kts | 118° |
| 2026-04-24 00:36 | 45.00977 | 20.36318 | 12185 ft | 362 kts | 118° |
| 2026-04-24 00:36 | 44.99694 | 20.39346 | 11857 ft | 349 kts | 118° |
| 2026-04-24 00:36 | 44.98489 | 20.42180 | 11728 ft | 324 kts | 118° |
| 2026-04-24 00:36 | 44.97366 | 20.44818 | 11545 ft | 304 kts | 117° |
| 2026-04-24 00:37 | 44.96294 | 20.47341 | 11077 ft | 296 kts | 117° |
| 2026-04-24 00:37 | 44.95243 | 20.49823 | 10575 ft | 292 kts | 117° |
| 2026-04-24 00:37 | 44.94199 | 20.52289 | 10415 ft | 293 kts | 117° |
| 2026-04-24 00:37 | 44.93155 | 20.54754 | 10254 ft | 293 kts | 118° |
| 2026-04-24 00:38 | 44.92111 | 20.57209 | 10103 ft | 291 kts | 118° |
| 2026-04-24 00:38 | 44.91060 | 20.59671 | 9755 ft | 293 kts | 118° |
| 2026-04-24 00:38 | 44.89841 | 20.61910 | 9306 ft | 291 kts | 134° |
| 2026-04-24 00:38 | 44.88241 | 20.63639 | 8770 ft | 290 kts | 150° |
| 2026-04-24 00:39 | 44.86391 | 20.64706 | 8199 ft | 286 kts | 166° |
| 2026-04-24 00:39 | 44.84451 | 20.65190 | 7633 ft | 281 kts | 172° |
| 2026-04-24 00:39 | 44.82534 | 20.65616 | 7088 ft | 277 kts | 172° |
| 2026-04-24 00:39 | 44.80649 | 20.66055 | 6546 ft | 273 kts | 169° |
| 2026-04-24 00:40 | 44.78869 | 20.66904 | 5992 ft | 269 kts | 153° |
| 2026-04-24 00:40 | 44.77325 | 20.68348 | 5406 ft | 264 kts | 137° |
| 2026-04-24 00:40 | 44.76099 | 20.70236 | 4861 ft | 260 kts | 127° |
| 2026-04-24 00:40 | 44.74793 | 20.71908 | 4415 ft | 250 kts | 154° |
| 2026-04-24 00:41 | 44.73159 | 20.72492 | 4130 ft | 240 kts | 180° |
| 2026-04-24 00:41 | 44.71532 | 20.72153 | 3828 ft | 235 kts | 203° |
| 2026-04-24 00:41 | 44.70135 | 20.71034 | 3556 ft | 231 kts | 225° |
| 2026-04-24 00:41 | 44.69155 | 20.69303 | 3258 ft | 225 kts | 247° |
| 2026-04-24 00:42 | 44.68714 | 20.67240 | 3022 ft | 216 kts | 269° |
| 2026-04-24 00:42 | 44.68773 | 20.65227 | 3002 ft | 199 kts | 279° |
| 2026-04-24 00:42 | 44.68892 | 20.63347 | 3019 ft | 187 kts | 278° |
| 2026-04-24 00:42 | 44.69001 | 20.61531 | 3010 ft | 185 kts | 278° |
| 2026-04-24 00:43 | 44.69197 | 20.59769 | 2995 ft | 180 kts | 293° |
| 2026-04-24 00:43 | 44.69738 | 20.58200 | 3001 ft | 178 kts | 302° |
| 2026-04-24 00:43 | 44.70365 | 20.56705 | 3004 ft | 177 kts | 304° |
| 2026-04-24 00:43 | 44.71013 | 20.55229 | 2997 ft | 177 kts | 305° |
| 2026-04-24 00:44 | 44.71666 | 20.53760 | 3006 ft | 177 kts | 305° |
| 2026-04-24 00:44 | 44.72322 | 20.52291 | 3007 ft | 177 kts | 305° |
| 2026-04-24 00:44 | 44.72978 | 20.50823 | 3011 ft | 178 kts | 305° |
| 2026-04-24 00:44 | 44.73633 | 20.49358 | 3013 ft | 177 kts | 305° |
| 2026-04-24 00:45 | 44.74287 | 20.47892 | 2893 ft | 177 kts | 306° |
| 2026-04-24 00:45 | 44.74936 | 20.46439 | 2680 ft | 173 kts | 306° |
| 2026-04-24 00:45 | 44.75547 | 20.45065 | 2478 ft | 160 kts | 306° |
| 2026-04-24 00:45 | 44.76115 | 20.43790 | 2268 ft | 146 kts | 306° |
| 2026-04-24 00:46 | 44.76641 | 20.42612 | 2087 ft | 140 kts | 307° |
| 2026-04-24 00:46 | 44.77155 | 20.41460 | 1903 ft | 139 kts | 306° |
| 2026-04-24 00:46 | 44.77665 | 20.40317 | 1724 ft | 137 kts | 305° |
| 2026-04-24 00:46 | 44.78171 | 20.39181 | 1515 ft | 137 kts | 305° |
| 2026-04-24 00:47 | 44.78668 | 20.38065 | 1331 ft | 136 kts | 304° |
| 2026-04-24 00:47 | 44.79171 | 20.36935 | 1147 ft | 136 kts | 303° |
| 2026-04-24 00:47 | 44.79674 | 20.35805 | 954 ft | 136 kts | 302° |
| 2026-04-24 00:47 | 44.80176 | 20.34674 | 773 ft | 136 kts | 300° |
| 2026-04-24 00:48 | 44.80676 | 20.33555 | 554 ft | 134 kts | 300° |
| 2026-04-24 00:48 | 44.81167 | 20.32444 | 377 ft | 134 kts | 300° |
| 2026-04-24 00:48 | 44.81650 | 20.31369 | 310 ft | 119 kts | 301° |
| 2026-04-24 00:48 | 44.82020 | 20.30525 | 306 ft | 80 kts | 302° |
| 2026-04-24 00:49 | 44.82166 | 20.30155 | 305 ft | 29 kts | 290° |
| 2026-04-24 00:49 | 44.82172 | 20.29954 | 310 ft | 15 kts | 271° |
| 2026-04-24 00:49 | 44.82170 | 20.29821 | 309 ft | 12 kts | 263° |
| 2026-04-24 00:49 | 44.82126 | 20.29673 | 308 ft | 16 kts | 235° |
| 2026-04-24 00:50 | 44.82096 | 20.29532 | 308 ft | 15 kts | 225° |
| 2026-04-24 00:50 | 44.82003 | 20.29457 | 307 ft | 16 kts | 214° |
| 2026-04-24 00:50 | 44.81946 | 20.29385 | 308 ft | 7 kts | 263° |
| 2026-04-24 00:50 | 44.81966 | 20.29332 | 307 ft | 2 kts | 301° |
| 2026-04-24 00:51 | 44.81970 | 20.29323 | 307 ft | 2 kts | 301° |
| 2026-04-24 00:51 | 44.81973 | 20.29317 | 307 ft | 0 kts | 301° |